Narathiwat, Thailand
Current Conditions -  °F | °C
As of 3:00 PM on Friday 31 Oct 2014 (Local Time) from WMKC Reporting Station
Broken Clouds Broken Clouds  
Wind Chill: 84°   Ceiling: 28000
Heat Index: 94°   Visibility: 6mi
Dew Point: 77°   Wind: 9mph
Humidity: 79%   Direction: 350°N
Pressure: 29.71"   Gusts: NA
Location:  6.43°N, 101.82°E
Report Text: WMKC 310800Z 35008KT 310V030 9999 FEW018 SCT140 BKN280 29/25 Q1006
Loading
Personal Weather Stations






























Interactive Weather Map
Tropical Storm Tracking
New forecast layout! Learn more

10-Day Weather Forecast

Advertisements
Track Severe Weather on mobile